createdAt,value
2024-01-04T00:00:44.203Z,18.57
2024-01-04T00:03:11.162Z,18.27
2024-01-04T00:05:38.263Z,19.77
2024-01-04T00:08:05.474Z,17.40
2024-01-04T00:10:32.459Z,17.07
2024-01-04T00:12:59.349Z,21.43
2024-01-04T00:15:26.258Z,20.73
2024-01-04T00:17:53.433Z,23.40
2024-01-04T00:20:20.551Z,23.43
2024-01-04T00:22:48.142Z,22.60
2024-01-04T00:25:15.143Z,22.80
2024-01-04T00:27:42.102Z,21.27
2024-01-04T00:30:09.707Z,21.73
2024-01-04T00:32:36.917Z,21.13
2024-01-04T00:35:04.220Z,29.07
2024-01-04T00:37:31.283Z,27.40
2024-01-04T00:39:58.203Z,27.50
2024-01-04T00:42:25.092Z,23.73
2024-01-04T00:44:52.250Z,25.80
2024-01-04T00:47:19.201Z,23.77
2024-01-04T00:49:46.445Z,22.87
2024-01-04T00:52:13.477Z,19.23
2024-01-04T00:54:40.681Z,16.87
2024-01-04T00:57:07.658Z,18.83
2024-01-04T00:59:34.656Z,18.73
2024-01-04T01:02:01.551Z,24.07
2024-01-04T01:04:28.568Z,19.00
2024-01-04T01:06:55.495Z,20.37
2024-01-04T01:09:22.477Z,19.70
2024-01-04T01:11:49.414Z,18.20
2024-01-04T01:14:16.379Z,13.67
2024-01-04T01:16:43.295Z,11.30
2024-01-04T01:19:10.500Z,8.30
2024-01-04T01:21:37.592Z,8.10
2024-01-04T01:24:04.945Z,7.70
2024-01-04T01:26:32.023Z,9.43
2024-01-04T01:28:59.322Z,9.30
2024-01-04T01:31:26.223Z,9.80
2024-01-04T01:33:53.261Z,9.37
2024-01-04T01:36:20.418Z,10.93
2024-01-04T01:38:47.662Z,10.17
2024-01-04T01:41:14.646Z,11.27
2024-01-04T01:43:42.782Z,14.20
2024-01-04T01:46:09.755Z,9.40
2024-01-04T01:48:36.955Z,10.10
2024-01-04T01:51:04.521Z,9.37
2024-01-04T01:53:32.013Z,10.53
2024-01-04T01:55:59.463Z,10.60
2024-01-04T01:58:26.589Z,11.27
2024-01-04T02:00:54.015Z,10.57
2024-01-04T02:03:21.360Z,16.73
2024-01-04T02:05:48.698Z,20.70
2024-01-04T02:08:16.000Z,18.30
2024-01-04T02:10:43.243Z,11.97
2024-01-04T02:13:11.551Z,14.50
2024-01-04T02:15:38.716Z,14.20
2024-01-04T02:18:06.549Z,7.60
2024-01-04T02:20:34.211Z,8.07
2024-01-04T02:23:03.245Z,10.43
2024-01-04T02:25:34.066Z,10.30
2024-01-04T02:28:01.473Z,10.97
2024-01-04T02:30:29.089Z,11.03
2024-01-04T02:32:56.806Z,11.67
2024-01-04T02:35:24.324Z,11.83
2024-01-04T02:37:51.612Z,11.57
2024-01-04T02:40:18.967Z,13.77
2024-01-04T02:42:46.296Z,13.00
2024-01-04T02:45:14.857Z,13.03
2024-01-04T02:47:43.552Z,11.10
2024-01-04T02:50:13.059Z,10.60
2024-01-04T02:52:40.442Z,9.73
2024-01-04T02:55:08.191Z,9.10
2024-01-04T02:57:35.480Z,10.20
2024-01-04T03:00:02.898Z,9.40
2024-01-04T03:02:30.286Z,11.57
2024-01-04T03:04:57.720Z,9.50
2024-01-04T03:07:25.259Z,9.10
2024-01-04T03:09:53.016Z,11.50
2024-01-04T03:12:20.347Z,7.40
2024-01-04T03:14:47.689Z,9.77
2024-01-04T03:17:15.204Z,8.77
2024-01-04T03:19:42.653Z,11.13
2024-01-04T03:22:10.047Z,8.90
2024-01-04T03:24:37.353Z,11.50
2024-01-04T03:27:05.086Z,14.03
2024-01-04T03:29:32.383Z,12.73
2024-01-04T03:31:59.872Z,13.87
2024-01-04T03:34:30.322Z,10.97
2024-01-04T03:36:57.783Z,10.80
2024-01-04T03:39:24.895Z,19.97
2024-01-04T03:41:51.821Z,17.17
2024-01-04T03:44:18.956Z,17.80
2024-01-04T03:46:45.865Z,16.10
2024-01-04T03:49:13.132Z,25.17
2024-01-04T03:51:40.250Z,56.57
2024-01-04T03:54:07.626Z,60.40
2024-01-04T03:56:37.264Z,50.03
2024-01-04T03:59:04.721Z,18.93
2024-01-04T04:01:32.962Z,20.37
2024-01-04T04:04:02.091Z,20.50
2024-01-04T04:06:29.660Z,18.67
2024-01-04T04:08:57.381Z,9.07
2024-01-04T04:11:24.693Z,7.90
2024-01-04T04:13:51.813Z,7.50
2024-01-04T04:16:18.843Z,25.30
2024-01-04T04:18:45.995Z,23.37
2024-01-04T04:21:21.189Z,9.90
2024-01-04T04:23:51.395Z,10.33
2024-01-04T04:26:22.559Z,8.97
2024-01-04T04:28:50.460Z,9.30
2024-01-04T04:31:18.655Z,12.20
2024-01-04T04:33:47.320Z,52.70
2024-01-04T04:36:15.447Z,71.17
2024-01-04T04:38:45.932Z,24.70
2024-01-04T04:41:13.036Z,20.43
2024-01-04T04:43:39.973Z,20.23
2024-01-04T04:46:11.828Z,22.97
2024-01-04T04:48:39.587Z,24.07
2024-01-04T04:51:07.020Z,19.37
2024-01-04T04:53:34.494Z,17.27
2024-01-04T04:56:03.396Z,16.20
2024-01-04T04:58:33.759Z,17.17
2024-01-04T05:01:03.062Z,19.20
2024-01-04T05:03:30.744Z,19.50
2024-01-04T05:05:59.275Z,19.73
2024-01-04T05:08:26.605Z,20.77
2024-01-04T05:10:53.951Z,19.97
2024-01-04T05:13:21.333Z,19.90
2024-01-04T05:15:49.018Z,16.97
2024-01-04T05:18:16.655Z,14.67
2024-01-04T05:20:45.737Z,13.97
2024-01-04T05:23:13.229Z,14.40
2024-01-04T05:25:42.020Z,15.73
2024-01-04T05:28:09.618Z,13.47
2024-01-04T05:30:44.479Z,11.87
2024-01-04T05:33:13.079Z,11.83
2024-01-04T05:35:40.516Z,12.17
2024-01-04T05:38:07.909Z,11.83
2024-01-04T05:40:35.329Z,13.03
2024-01-04T05:43:02.569Z,14.37
2024-01-04T05:45:29.954Z,14.67
2024-01-04T05:47:57.383Z,12.73
2024-01-04T05:50:24.738Z,12.73
2024-01-04T05:52:52.306Z,42.23
2024-01-04T05:55:19.644Z,18.57
2024-01-04T05:57:47.036Z,16.07
2024-01-04T06:00:18.390Z,16.10
2024-01-04T06:02:46.661Z,16.17
2024-01-04T06:05:14.784Z,17.33
2024-01-04T06:07:42.167Z,16.23
2024-01-04T06:10:09.836Z,15.83
2024-01-04T06:12:37.171Z,16.33
2024-01-04T06:15:06.615Z,16.60
2024-01-04T06:17:34.108Z,15.27
2024-01-04T06:20:01.654Z,15.07
2024-01-04T06:22:29.320Z,16.30
2024-01-04T06:24:56.677Z,17.23
2024-01-04T06:27:24.157Z,14.70
2024-01-04T06:29:52.973Z,14.70
2024-01-04T06:32:21.657Z,32.20
2024-01-04T06:34:49.023Z,22.23
2024-01-04T06:37:16.570Z,51.67
2024-01-04T06:39:46.460Z,14.47
2024-01-04T06:42:16.301Z,16.67
2024-01-04T06:44:47.742Z,35.13
2024-01-04T06:47:16.506Z,33.77
2024-01-04T06:49:44.349Z,28.93
2024-01-04T06:52:12.049Z,36.23
2024-01-04T06:54:40.146Z,14.57
2024-01-04T06:57:08.255Z,37.93
2024-01-04T06:59:36.632Z,11.63
2024-01-04T07:02:07.331Z,10.70
2024-01-04T07:04:35.084Z,24.90
2024-01-04T07:07:02.956Z,12.40
2024-01-04T07:09:30.364Z,15.27
2024-01-04T07:11:58.270Z,12.43
2024-01-04T07:14:28.080Z,14.97
2024-01-04T07:16:55.909Z,13.33
2024-01-04T07:19:23.901Z,10.57
2024-01-04T07:21:52.448Z,10.00
2024-01-04T07:24:19.856Z,11.40
2024-01-04T07:26:47.253Z,12.87
2024-01-04T07:29:15.083Z,13.63
2024-01-04T07:31:42.621Z,13.47
2024-01-04T07:34:10.419Z,12.27
2024-01-04T07:36:39.970Z,15.70
2024-01-04T07:39:08.098Z,13.83
2024-01-04T07:41:38.242Z,13.87
2024-01-04T07:44:09.817Z,13.27
2024-01-04T07:46:37.366Z,12.47
2024-01-04T07:49:05.852Z,13.73
2024-01-04T07:51:33.264Z,12.67
2024-01-04T07:54:00.397Z,11.70
2024-01-04T07:56:27.304Z,10.80
2024-01-04T07:58:54.584Z,11.17
2024-01-04T08:01:21.694Z,12.40
2024-01-04T08:03:49.519Z,12.80
2024-01-04T08:06:16.836Z,12.50
2024-01-04T08:08:43.981Z,13.03
2024-01-04T08:11:11.022Z,13.40
2024-01-04T08:13:38.358Z,12.47
2024-01-04T08:16:05.670Z,13.23
2024-01-04T08:18:34.941Z,12.73
2024-01-04T08:21:03.664Z,13.93
2024-01-04T08:23:31.868Z,12.53
2024-01-04T08:25:58.888Z,11.53
2024-01-04T08:28:25.940Z,9.87
2024-01-04T08:30:53.592Z,19.27
2024-01-04T08:33:20.945Z,13.57
2024-01-04T08:35:48.150Z,10.17
2024-01-04T08:38:15.317Z,10.87
2024-01-04T08:40:42.273Z,10.80
2024-01-04T08:43:09.395Z,11.30
2024-01-04T08:45:37.324Z,11.43
2024-01-04T08:48:06.919Z,13.93
2024-01-04T08:50:34.027Z,16.43
2024-01-04T08:53:01.019Z,11.70
2024-01-04T08:55:28.016Z,12.13
2024-01-04T08:57:54.967Z,14.00
2024-01-04T09:00:22.121Z,13.40
2024-01-04T09:02:49.305Z,13.53
2024-01-04T09:05:16.328Z,13.00
2024-01-04T09:07:43.648Z,11.07
2024-01-04T09:10:10.726Z,13.80
2024-01-04T09:12:39.918Z,12.73
2024-01-04T09:15:09.109Z,12.37
2024-01-04T09:17:36.799Z,13.53
2024-01-04T09:20:04.899Z,18.70
2024-01-04T09:22:32.004Z,17.07
2024-01-04T09:24:58.972Z,16.40
2024-01-04T09:27:26.707Z,18.30
2024-01-04T09:29:54.184Z,22.27
2024-01-04T09:32:21.681Z,20.97
2024-01-04T09:34:51.250Z,18.40
2024-01-04T09:37:18.594Z,17.30
2024-01-04T09:39:45.997Z,21.80
2024-01-04T09:42:16.289Z,15.63
2024-01-04T09:44:43.809Z,14.20
2024-01-04T09:47:11.937Z,11.97
2024-01-04T09:49:40.598Z,11.83
2024-01-04T09:52:11.112Z,11.30
2024-01-04T09:54:40.665Z,11.10
2024-01-04T09:57:11.877Z,11.37
2024-01-04T09:59:38.977Z,12.73
2024-01-04T10:02:10.115Z,10.10
2024-01-04T10:04:38.747Z,10.47
2024-01-04T10:07:08.612Z,10.43
2024-01-04T10:09:55.121Z,9.30
2024-01-04T10:12:23.691Z,10.53
2024-01-04T10:14:51.138Z,10.33
2024-01-04T10:17:20.726Z,10.83
2024-01-04T10:19:48.607Z,10.03
2024-01-04T10:22:16.611Z,10.83
2024-01-04T10:24:44.139Z,11.70
2024-01-04T10:27:16.842Z,12.57
2024-01-04T10:29:46.796Z,11.93
2024-01-04T10:32:15.348Z,12.73
2024-01-04T10:34:43.454Z,12.43
2024-01-04T10:37:18.903Z,12.03
2024-01-04T10:40:04.730Z,43.53
2024-01-04T10:42:32.962Z,39.23
2024-01-04T10:45:00.770Z,17.30
2024-01-04T10:47:28.659Z,16.40
2024-01-04T10:50:01.833Z,19.77
2024-01-04T10:52:33.452Z,17.50
2024-01-04T10:55:04.709Z,15.80
2024-01-04T10:57:35.094Z,15.87
2024-01-04T11:00:08.107Z,15.17
2024-01-04T11:02:38.234Z,32.00
2024-01-04T11:05:08.048Z,16.30
2024-01-04T11:07:41.014Z,8.50
2024-01-04T11:10:10.894Z,9.33
2024-01-04T11:12:40.506Z,18.83
2024-01-04T11:15:13.563Z,21.73
2024-01-04T11:18:06.122Z,9.97
2024-01-04T11:20:43.892Z,8.17
2024-01-04T11:23:22.020Z,8.43
2024-01-04T11:26:33.948Z,9.00
2024-01-04T11:29:09.886Z,9.03
2024-01-04T11:31:44.408Z,26.43
2024-01-04T11:34:16.407Z,10.90
2024-01-04T11:36:44.138Z,12.50
2024-01-04T11:39:12.397Z,9.40
2024-01-04T11:41:40.229Z,10.07
2024-01-04T11:44:21.042Z,8.70
2024-01-04T11:46:59.991Z,8.23
2024-01-04T11:49:28.040Z,5.87
2024-01-04T11:51:57.786Z,6.23
2024-01-04T11:54:26.345Z,7.43
2024-01-04T11:56:54.017Z,6.83
2024-01-04T11:59:33.978Z,7.80
2024-01-04T12:02:02.140Z,7.90
2024-01-04T12:04:31.240Z,8.23
2024-01-04T12:07:02.620Z,7.53
2024-01-04T12:09:30.835Z,7.47
2024-01-04T12:11:59.221Z,7.23
2024-01-04T12:14:28.370Z,6.73
2024-01-04T12:16:56.217Z,6.90
2024-01-04T12:19:23.816Z,7.43
2024-01-04T12:21:52.515Z,7.10
2024-01-04T12:24:20.096Z,9.30
2024-01-04T12:26:48.310Z,7.03
2024-01-04T12:29:16.391Z,7.20
2024-01-04T12:31:47.268Z,6.70
2024-01-04T12:34:16.243Z,7.27
2024-01-04T12:36:43.883Z,7.13
2024-01-04T12:39:15.462Z,8.17
2024-01-04T12:41:47.906Z,9.03
2024-01-04T12:44:16.733Z,7.13
2024-01-04T12:46:45.853Z,7.78
2024-01-04T12:49:17.644Z,7.43
2024-01-04T12:51:47.943Z,6.68
2024-01-04T12:54:16.710Z,6.88
2024-01-04T12:56:44.441Z,7.25
2024-01-04T12:59:16.706Z,8.02
2024-01-04T13:01:44.123Z,6.88
2024-01-04T13:04:12.675Z,6.80
2024-01-04T13:06:40.183Z,6.18
2024-01-04T13:09:16.107Z,5.63
2024-01-04T13:11:44.013Z,6.28
2024-01-04T13:14:12.487Z,5.80
2024-01-04T13:16:40.899Z,5.57
2024-01-04T13:19:08.451Z,5.40
2024-01-04T13:21:35.885Z,5.18
2024-01-04T13:24:03.358Z,5.28
2024-01-04T13:26:30.735Z,5.90
2024-01-04T13:28:58.117Z,6.20
2024-01-04T13:31:25.535Z,5.63
2024-01-04T13:33:53.277Z,5.33
2024-01-04T13:36:22.098Z,6.57
2024-01-04T13:38:50.560Z,6.23
2024-01-04T13:41:20.589Z,5.83
2024-01-04T13:43:48.479Z,5.97
2024-01-04T13:46:16.460Z,6.20
2024-01-04T13:48:44.309Z,6.10
2024-01-04T13:51:12.215Z,8.43
2024-01-04T13:53:39.612Z,7.07
2024-01-04T13:56:08.348Z,6.67
2024-01-04T13:58:35.615Z,7.43
2024-01-04T14:01:04.569Z,7.43
2024-01-04T14:03:32.622Z,6.90
2024-01-04T14:06:01.277Z,7.60
2024-01-04T14:08:29.943Z,7.43
2024-01-04T14:10:57.727Z,11.47
2024-01-04T14:13:25.177Z,7.90
2024-01-04T14:15:52.683Z,8.73
2024-01-04T14:18:20.389Z,8.87
2024-01-04T14:20:51.367Z,8.03
2024-01-04T14:23:19.158Z,7.83
2024-01-04T14:25:46.633Z,7.13
2024-01-04T14:28:14.314Z,7.63
2024-01-04T14:30:41.788Z,10.13
2024-01-04T14:33:09.426Z,10.47
2024-01-04T14:35:37.974Z,18.80
2024-01-04T14:38:05.358Z,26.60
2024-01-04T14:40:32.934Z,40.70
2024-01-04T14:43:01.388Z,45.50
2024-01-04T14:45:29.631Z,65.57
2024-01-04T14:47:57.568Z,48.60
2024-01-04T14:50:28.422Z,33.97
2024-01-04T14:52:57.594Z,28.80
2024-01-04T14:55:27.675Z,38.03
2024-01-04T14:57:57.098Z,33.53
2024-01-04T15:00:28.161Z,28.87
2024-01-04T15:02:55.567Z,25.67
2024-01-04T15:05:22.934Z,41.83
2024-01-04T15:07:49.962Z,25.77
2024-01-04T15:10:16.975Z,20.87
2024-01-04T15:12:44.654Z,25.77
2024-01-04T15:15:23.177Z,36.27
2024-01-04T15:17:54.391Z,29.27
2024-01-04T15:20:23.015Z,37.83
2024-01-04T15:22:51.094Z,55.30
2024-01-04T15:25:19.478Z,47.43
2024-01-04T15:27:46.552Z,105.90
2024-01-04T15:30:17.398Z,82.37
2024-01-04T15:32:45.126Z,45.30
2024-01-04T15:35:14.150Z,41.37
2024-01-04T15:37:44.957Z,51.73
2024-01-04T15:40:13.302Z,80.77
2024-01-04T15:42:45.775Z,60.60
2024-01-04T15:45:17.058Z,48.10
2024-01-04T15:47:45.478Z,27.53
2024-01-04T15:50:14.975Z,14.20
2024-01-04T15:52:43.774Z,19.70
2024-01-04T15:55:11.016Z,17.67
2024-01-04T15:57:39.159Z,18.97
2024-01-04T16:00:06.822Z,17.13
2024-01-04T16:02:36.070Z,23.23
2024-01-04T16:05:27.314Z,12.80
2024-01-04T16:07:55.186Z,11.97
2024-01-04T16:10:26.422Z,12.67
2024-01-04T16:12:55.272Z,13.67
2024-01-04T16:15:24.154Z,12.30
2024-01-04T16:17:55.872Z,9.03
2024-01-04T16:20:30.947Z,8.70
2024-01-04T16:23:06.700Z,10.70
2024-01-04T16:25:36.228Z,14.17
2024-01-04T16:28:04.886Z,12.67
2024-01-04T16:30:36.338Z,10.30
2024-01-04T16:33:06.340Z,8.17
2024-01-04T16:35:33.568Z,7.77
2024-01-04T16:38:02.784Z,7.90
2024-01-04T16:40:29.925Z,10.47
2024-01-04T16:43:00.095Z,8.33
2024-01-04T16:45:28.481Z,10.60
2024-01-04T16:47:56.525Z,20.40
2024-01-04T16:50:27.409Z,20.70
2024-01-04T16:52:55.563Z,18.80
2024-01-04T16:55:25.002Z,15.10
2024-01-04T16:57:53.445Z,3.60
2024-01-04T17:00:24.817Z,6.13
2024-01-04T17:02:53.622Z,3.90
2024-01-04T17:05:22.039Z,5.47
2024-01-04T17:07:50.802Z,5.93
2024-01-04T17:10:22.111Z,5.43
2024-01-04T17:12:52.200Z,7.80
2024-01-04T17:15:20.837Z,5.10
2024-01-04T17:17:49.382Z,7.37
2024-01-04T17:20:19.850Z,10.20
2024-01-04T17:22:47.700Z,7.20
2024-01-04T17:25:15.182Z,7.60
2024-01-04T17:27:43.572Z,6.00
2024-01-04T17:30:11.597Z,9.07
2024-01-04T17:33:09.366Z,10.53
2024-01-04T17:35:40.312Z,6.57
2024-01-04T17:38:10.916Z,6.43
2024-01-04T17:40:38.851Z,4.00
2024-01-04T17:43:10.496Z,5.13
2024-01-04T17:45:41.738Z,4.73
2024-01-04T17:48:12.431Z,5.50
2024-01-04T17:50:41.869Z,3.80
2024-01-04T17:53:11.358Z,3.83
2024-01-04T17:55:39.562Z,4.03
2024-01-04T17:58:08.451Z,4.27
2024-01-04T18:00:36.576Z,3.50
2024-01-04T18:03:06.879Z,3.77
2024-01-04T18:05:35.826Z,2.43
2024-01-04T18:08:03.645Z,2.47
2024-01-04T18:10:32.661Z,2.37
2024-01-04T18:13:01.318Z,2.17
2024-01-04T18:15:31.153Z,2.10
2024-01-04T18:18:20.049Z,1.90
2024-01-04T18:20:47.406Z,2.77
2024-01-04T18:23:15.260Z,3.80
2024-01-04T18:25:49.075Z,3.30
2024-01-04T18:28:22.760Z,3.83
2024-01-04T18:30:52.794Z,2.50
2024-01-04T18:33:27.444Z,2.77
2024-01-04T18:35:58.583Z,2.53
2024-01-04T18:38:27.316Z,2.97
2024-01-04T18:40:56.394Z,2.40
2024-01-04T18:43:23.928Z,3.03
2024-01-04T18:46:13.607Z,2.20
2024-01-04T18:48:44.416Z,2.07
2024-01-04T18:51:13.389Z,2.00
2024-01-04T18:53:47.499Z,2.60
2024-01-04T18:56:18.396Z,2.67
2024-01-04T18:58:47.261Z,2.00
2024-01-04T19:01:16.159Z,2.30
2024-01-04T19:03:44.208Z,2.00
2024-01-04T19:06:12.228Z,1.97
2024-01-04T19:08:45.106Z,1.90
2024-01-04T19:11:12.550Z,2.20
2024-01-04T19:13:42.559Z,2.40
2024-01-04T19:16:14.602Z,2.63
2024-01-04T19:18:50.132Z,2.77
2024-01-04T19:21:20.860Z,3.27
2024-01-04T19:23:50.399Z,2.20
2024-01-04T19:26:18.789Z,2.63
2024-01-04T19:28:47.201Z,3.50
2024-01-04T19:31:15.554Z,2.33
2024-01-04T19:33:43.701Z,2.57
2024-01-04T19:36:11.683Z,2.20
2024-01-04T19:38:40.660Z,2.43
2024-01-04T19:41:13.862Z,2.07
2024-01-04T19:43:42.887Z,2.40
2024-01-04T19:46:11.905Z,2.10
2024-01-04T19:48:41.574Z,2.97
2024-01-04T19:51:11.858Z,3.63
2024-01-04T19:53:39.903Z,2.97
2024-01-04T19:56:09.387Z,2.97
2024-01-04T19:58:38.540Z,3.20
2024-01-04T20:01:07.875Z,3.40
2024-01-04T20:03:37.388Z,3.03
2024-01-04T20:06:07.896Z,2.77
2024-01-04T20:08:37.139Z,5.47
2024-01-04T20:11:26.770Z,3.10
2024-01-04T20:14:14.191Z,4.63
2024-01-04T20:16:43.070Z,3.30
2024-01-04T20:19:14.217Z,2.70
2024-01-04T20:21:43.550Z,2.83
2024-01-04T20:24:16.280Z,2.50
2024-01-04T20:26:44.550Z,1.90
2024-01-04T20:29:12.234Z,2.10
2024-01-04T20:31:40.368Z,2.30
2024-01-04T20:34:09.540Z,2.30
2024-01-04T20:36:36.920Z,3.37
2024-01-04T20:39:09.533Z,2.40
2024-01-04T20:41:37.060Z,1.90
2024-01-04T20:44:05.120Z,2.10
2024-01-04T20:46:32.320Z,2.47
2024-01-04T20:48:59.631Z,2.87
2024-01-04T20:51:29.568Z,3.60
2024-01-04T20:53:57.531Z,3.70
2024-01-04T20:56:25.279Z,1.80
2024-01-04T20:58:53.142Z,2.17
2024-01-04T21:01:41.884Z,2.00
2024-01-04T21:04:10.574Z,2.70
2024-01-04T21:06:37.902Z,1.80
2024-01-04T21:09:05.765Z,1.80
2024-01-04T21:11:33.591Z,1.97
2024-01-04T21:14:03.801Z,1.87
2024-01-04T21:16:31.242Z,1.80
2024-01-04T21:18:59.602Z,1.77
2024-01-04T21:21:27.332Z,1.83
2024-01-04T21:23:55.110Z,2.30
2024-01-04T21:26:23.028Z,2.27
2024-01-04T21:28:51.950Z,1.90
2024-01-04T21:31:21.351Z,1.87
2024-01-04T21:33:49.263Z,2.30
2024-01-04T21:36:19.162Z,1.80
2024-01-04T21:38:46.809Z,1.70
2024-01-04T21:41:35.469Z,1.97
2024-01-04T21:44:03.900Z,1.70
2024-01-04T21:46:31.146Z,1.57
2024-01-04T21:48:59.961Z,2.13
2024-01-04T21:51:27.886Z,1.60
2024-01-04T21:53:55.285Z,2.00
2024-01-04T21:56:27.511Z,2.10
2024-01-04T21:58:56.126Z,3.13
2024-01-04T22:01:46.606Z,2.10
2024-01-04T22:04:14.186Z,1.73
2024-01-04T22:06:46.038Z,2.33
2024-01-04T22:09:13.772Z,2.80
2024-01-04T22:11:43.194Z,2.00
2024-01-04T22:14:11.192Z,1.90
2024-01-04T22:16:41.007Z,2.00
2024-01-04T22:19:13.432Z,2.60
2024-01-04T22:21:41.253Z,2.13
2024-01-04T22:24:08.933Z,1.97
2024-01-04T22:26:36.925Z,2.40
2024-01-04T22:29:04.667Z,2.30
2024-01-04T22:31:31.932Z,2.40
2024-01-04T22:33:59.353Z,2.40
2024-01-04T22:36:27.081Z,2.17
2024-01-04T22:38:54.383Z,2.13
2024-01-04T22:41:21.705Z,2.60
2024-01-04T22:43:49.081Z,3.37
2024-01-04T22:46:16.395Z,2.10
2024-01-04T22:48:44.832Z,2.77
2024-01-04T22:51:12.033Z,2.33
2024-01-04T22:53:39.857Z,3.03
2024-01-04T22:56:07.597Z,3.17
2024-01-04T22:58:35.096Z,3.50
2024-01-04T23:01:05.070Z,2.73
2024-01-04T23:03:36.340Z,3.20
2024-01-04T23:06:06.726Z,6.67
2024-01-04T23:08:36.596Z,3.37
2024-01-04T23:11:04.492Z,3.47
2024-01-04T23:13:31.790Z,2.80
2024-01-04T23:15:59.232Z,2.47
2024-01-04T23:18:26.661Z,2.40
2024-01-04T23:20:53.999Z,2.80
2024-01-04T23:23:22.465Z,2.63
2024-01-04T23:25:49.972Z,2.93
2024-01-04T23:28:17.113Z,3.20
2024-01-04T23:30:44.289Z,3.17
2024-01-04T23:33:11.599Z,2.97
2024-01-04T23:35:39.732Z,3.23
2024-01-04T23:38:08.203Z,3.87
2024-01-04T23:40:36.227Z,3.30
2024-01-04T23:43:03.577Z,3.03
2024-01-04T23:45:30.747Z,2.90
2024-01-04T23:47:58.950Z,2.97
2024-01-04T23:50:26.198Z,3.30
2024-01-04T23:52:53.430Z,2.93
2024-01-04T23:55:20.739Z,3.03
2024-01-04T23:57:47.866Z,2.87
